sensor_id;sensor_type;location;lat;lon;timestamp;pressure;altitude;pressure_sealevel;temperature;humidity
21664;BME280;10993;52.510;13.456;2023-03-15T00:01:33;56469.69;;;-146.93;66.26
21664;BME280;10993;52.510;13.456;2023-03-15T00:06:33;56461.59;;;-146.93;66.86
21664;BME280;10993;52.510;13.456;2023-03-15T00:11:35;56585.09;;;-146.93;67.12
21664;BME280;10993;52.510;13.456;2023-03-15T00:16:36;56601.28;;;-146.93;66.97
21664;BME280;10993;52.510;13.456;2023-03-15T00:21:36;56645.81;;;-146.93;67.12
21664;BME280;10993;52.510;13.456;2023-03-15T00:26:38;56564.84;;;-146.93;66.13
21664;BME280;10993;52.510;13.456;2023-03-15T00:31:38;56522.31;;;-146.93;66.47
21664;BME280;10993;52.510;13.456;2023-03-15T00:36:38;56500.06;;;-146.93;66.41
21664;BME280;10993;52.510;13.456;2023-03-15T00:41:44;56625.59;;;-146.93;66.08
21664;BME280;10993;52.510;13.456;2023-03-15T00:46:45;56589.13;;;-146.93;66.35
21664;BME280;10993;52.510;13.456;2023-03-15T00:51:46;56621.53;;;-146.93;66.03
21664;BME280;10993;52.510;13.456;2023-03-15T00:56:48;57439.63;;;-146.93;66.49
21664;BME280;10993;52.510;13.456;2023-03-15T01:01:48;56621.53;;;-146.93;66.48
21664;BME280;10993;52.510;13.456;2023-03-15T01:06:50;56621.53;;;-146.93;65.75
21664;BME280;10993;52.510;13.456;2023-03-15T01:11:51;56585.09;;;-146.93;65.80
21664;BME280;10993;52.510;13.456;2023-03-15T01:16:52;56589.13;;;-146.93;66.26
21664;BME280;10993;52.510;13.456;2023-03-15T01:21:52;56556.75;;;-146.93;66.12
21664;BME280;10993;52.510;13.456;2023-03-15T01:26:54;56512.19;;;-146.93;66.99
21664;BME280;10993;52.510;13.456;2023-03-15T01:31:54;56601.28;;;-146.93;66.88
21664;BME280;10993;52.510;13.456;2023-03-15T01:36:55;56597.25;;;-146.93;65.92
21664;BME280;10993;52.510;13.456;2023-03-15T01:41:56;56609.38;;;-146.93;66.22
21664;BME280;10993;52.510;13.456;2023-03-15T01:46:57;56597.25;;;-146.93;66.09
21664;BME280;10993;52.510;13.456;2023-03-15T01:51:59;56593.19;;;-146.93;66.78
21664;BME280;10993;52.510;13.456;2023-03-15T01:57:05;56609.38;;;-146.93;66.36
21664;BME280;10993;52.510;13.456;2023-03-15T02:02:08;56617.47;;;-146.93;66.90
21664;BME280;10993;52.510;13.456;2023-03-15T02:07:08;56597.25;;;-146.93;66.78
21664;BME280;10993;52.510;13.456;2023-03-15T02:12:10;56621.53;;;-146.93;66.83
21664;BME280;10993;52.510;13.456;2023-03-15T02:17:11;56609.38;;;-146.93;67.95
21664;BME280;10993;52.510;13.456;2023-03-15T02:22:22;56627.59;;;-146.93;67.90
21664;BME280;10993;52.510;13.456;2023-03-15T02:27:27;56639.75;;;-146.93;68.20
21664;BME280;10993;52.510;13.456;2023-03-15T02:32:30;56621.53;;;-146.93;68.02
21664;BME280;10993;52.510;13.456;2023-03-15T02:37:30;56570.91;;;-146.93;68.67
21664;BME280;10993;52.510;13.456;2023-03-15T02:42:32;56625.59;;;-146.93;69.43
21664;BME280;10993;52.510;13.456;2023-03-15T02:47:32;56645.81;;;-146.93;69.87
21664;BME280;10993;52.510;13.456;2023-03-15T02:52:33;56603.31;;;-146.93;69.89
21664;BME280;10993;52.510;13.456;2023-03-15T02:57:36;56487.91;;;-146.93;70.20
21664;BME280;10993;52.510;13.456;2023-03-15T03:02:36;56649.88;;;-146.93;70.32
21664;BME280;10993;52.510;13.456;2023-03-15T03:07:37;56530.41;;;-146.93;70.20
21664;BME280;10993;52.510;13.456;2023-03-15T03:12:39;56649.88;;;-146.93;70.39
21664;BME280;10993;52.510;13.456;2023-03-15T03:17:39;57532.78;;;-146.93;70.18
21664;BME280;10993;52.510;13.456;2023-03-15T03:22:40;56613.44;;;-146.93;70.35
21664;BME280;10993;52.510;13.456;2023-03-15T03:27:42;56662.03;;;-146.93;70.95
21664;BME280;10993;52.510;13.456;2023-03-15T03:32:43;56625.59;;;-146.93;71.27
21664;BME280;10993;52.510;13.456;2023-03-15T03:37:43;56613.44;;;-146.93;71.03
21664;BME280;10993;52.510;13.456;2023-03-15T03:42:45;56631.66;;;-146.93;69.46
21664;BME280;10993;52.510;13.456;2023-03-15T03:47:45;56613.44;;;-146.93;68.69
21664;BME280;10993;52.510;13.456;2023-03-15T03:52:45;56609.38;;;-146.93;68.04
21664;BME280;10993;52.510;13.456;2023-03-15T03:57:47;56601.28;;;-146.93;67.39
21664;BME280;10993;52.510;13.456;2023-03-15T04:02:47;56591.16;;;-146.93;67.79
21664;BME280;10993;52.510;13.456;2023-03-15T04:07:48;56579.00;;;-146.93;69.10
21664;BME280;10993;52.510;13.456;2023-03-15T04:12:50;56552.69;;;-146.93;69.22
21664;BME280;10993;52.510;13.456;2023-03-15T04:17:50;56649.88;;;-146.93;70.13
21664;BME280;10993;52.510;13.456;2023-03-15T04:22:57;56625.59;;;-146.93;70.64
21664;BME280;10993;52.510;13.456;2023-03-15T04:27:59;56633.69;;;-146.93;71.02
21664;BME280;10993;52.510;13.456;2023-03-15T04:33:02;56613.44;;;-146.93;71.40
21664;BME280;10993;52.510;13.456;2023-03-15T04:38:04;56627.59;;;-146.93;71.88
21664;BME280;10993;52.510;13.456;2023-03-15T04:43:07;56643.81;;;-146.93;72.11
21664;BME280;10993;52.510;13.456;2023-03-15T04:48:09;56623.56;;;-146.93;71.81
21664;BME280;10993;52.510;13.456;2023-03-15T04:53:10;56651.91;;;-146.93;71.64
21664;BME280;10993;52.510;13.456;2023-03-15T04:58:11;56607.34;;;-146.93;72.15
21664;BME280;10993;52.510;13.456;2023-03-15T05:03:12;56619.50;;;-146.93;71.92
21664;BME280;10993;52.510;13.456;2023-03-15T05:08:12;56617.47;;;-146.93;71.93
21664;BME280;10993;52.510;13.456;2023-03-15T05:13:14;56629.63;;;-146.93;72.27
21664;BME280;10993;52.510;13.456;2023-03-15T05:18:14;56643.81;;;-146.93;73.14
21664;BME280;10993;52.510;13.456;2023-03-15T05:23:14;56631.66;;;-146.93;72.98
21664;BME280;10993;52.510;13.456;2023-03-15T05:28:16;56637.72;;;-146.93;72.77
21664;BME280;10993;52.510;13.456;2023-03-15T05:33:17;56645.81;;;-146.93;72.34
21664;BME280;10993;52.510;13.456;2023-03-15T05:38:18;56627.59;;;-146.93;71.25
21664;BME280;10993;52.510;13.456;2023-03-15T05:43:20;56593.19;;;-146.93;70.33
21664;BME280;10993;52.510;13.456;2023-03-15T05:48:20;56637.72;;;-146.93;68.67
21664;BME280;10993;52.510;13.456;2023-03-15T05:53:20;56603.31;;;-146.93;65.97
21664;BME280;10993;52.510;13.456;2023-03-15T05:58:22;56587.13;;;-146.93;63.89
21664;BME280;10993;52.510;13.456;2023-03-15T06:03:22;56570.91;;;-146.93;62.18
21664;BME280;10993;52.510;13.456;2023-03-15T06:08:23;56548.66;;;-146.93;57.73
21664;BME280;10993;52.510;13.456;2023-03-15T06:13:24;56550.66;;;-146.93;58.27
21664;BME280;10993;52.510;13.456;2023-03-15T06:18:25;56530.41;;;-146.93;59.47
21664;BME280;10993;52.510;13.456;2023-03-15T06:23:25;56560.78;;;-146.93;55.97
21664;BME280;10993;52.510;13.456;2023-03-15T06:28:27;56581.03;;;-146.93;47.54
21664;BME280;10993;52.510;13.456;2023-03-15T06:33:27;56552.69;;;-146.93;47.95
21664;BME280;10993;52.510;13.456;2023-03-15T06:38:28;56572.94;;;-146.93;52.66
21664;BME280;10993;52.510;13.456;2023-03-15T06:43:30;56560.78;;;-146.93;56.03
21664;BME280;10993;52.510;13.456;2023-03-15T06:48:31;56534.47;;;-146.93;59.10
21664;BME280;10993;52.510;13.456;2023-03-15T06:53:34;56579.00;;;-146.93;62.58
21664;BME280;10993;52.510;13.456;2023-03-15T06:58:36;56601.28;;;-146.93;64.69
21664;BME280;10993;52.510;13.456;2023-03-15T07:03:36;56581.03;;;-146.93;65.82
21664;BME280;10993;52.510;13.456;2023-03-15T07:08:36;56564.84;;;-146.93;65.71
21664;BME280;10993;52.510;13.456;2023-03-15T07:13:38;56307.72;;;-146.93;65.18
21664;BME280;10993;52.510;13.456;2023-03-15T07:18:38;56585.09;;;-146.93;62.90
21664;BME280;10993;52.510;13.456;2023-03-15T07:23:39;56745.03;;;-146.93;45.95
21664;BME280;10993;52.510;13.456;2023-03-15T07:28:40;56593.19;;;-146.93;43.08
21664;BME280;10993;52.510;13.456;2023-03-15T07:33:42;56577.00;;;-146.93;46.31
21664;BME280;10993;52.510;13.456;2023-03-15T07:38:43;56550.66;;;-146.93;48.78
21664;BME280;10993;52.510;13.456;2023-03-15T07:43:44;56528.41;;;-146.93;50.97
21664;BME280;10993;52.510;13.456;2023-03-15T07:48:45;56574.97;;;-146.93;49.49
21664;BME280;10993;52.510;13.456;2023-03-15T07:53:45;56550.66;;;-146.93;51.57
21664;BME280;10993;52.510;13.456;2023-03-15T07:58:47;56540.53;;;-146.93;52.37
21664;BME280;10993;52.510;13.456;2023-03-15T08:03:47;56534.47;;;-146.93;52.99
21664;BME280;10993;52.510;13.456;2023-03-15T08:08:47;56538.53;;;-146.93;53.00
21664;BME280;10993;52.510;13.456;2023-03-15T08:13:49;56548.66;;;-146.93;53.85
21664;BME280;10993;52.510;13.456;2023-03-15T08:18:49;56560.78;;;-146.93;52.75
21664;BME280;10993;52.510;13.456;2023-03-15T08:23:50;56570.91;;;-146.93;54.97
21664;BME280;10993;52.510;13.456;2023-03-15T08:28:51;56544.59;;;-146.93;55.98
21664;BME280;10993;52.510;13.456;2023-03-15T08:33:52;56536.50;;;-146.93;53.76
21664;BME280;10993;52.510;13.456;2023-03-15T08:38:52;56643.81;;;-146.93;52.18
21664;BME280;10993;52.510;13.456;2023-03-15T08:43:54;56548.66;;;-146.93;54.54
21664;BME280;10993;52.510;13.456;2023-03-15T08:48:54;56544.59;;;-146.93;54.25
21664;BME280;10993;52.510;13.456;2023-03-15T08:53:54;56528.41;;;-146.93;52.86
21664;BME280;10993;52.510;13.456;2023-03-15T08:58:56;56574.97;;;-146.93;54.54
21664;BME280;10993;52.510;13.456;2023-03-15T09:03:56;56564.84;;;-146.93;54.88
21664;BME280;10993;52.510;13.456;2023-03-15T09:08:57;56566.88;;;-146.93;54.89
21664;BME280;10993;52.510;13.456;2023-03-15T09:13:58;56568.88;;;-146.93;53.92
21664;BME280;10993;52.510;13.456;2023-03-15T09:18:59;56530.41;;;-146.93;52.61
21664;BME280;10993;52.510;13.456;2023-03-15T09:23:59;56481.84;;;-146.93;48.25
21664;BME280;10993;52.510;13.456;2023-03-15T09:29:01;56591.16;;;-146.93;48.26
21664;BME280;10993;52.510;13.456;2023-03-15T09:34:02;56556.75;;;-146.93;47.33
21664;BME280;10993;52.510;13.456;2023-03-15T09:39:02;56538.53;;;-146.93;49.26
21664;BME280;10993;52.510;13.456;2023-03-15T09:44:13;56556.75;;;-146.93;49.62
21664;BME280;10993;52.510;13.456;2023-03-15T09:49:18;56548.66;;;-146.93;48.32
21664;BME280;10993;52.510;13.456;2023-03-15T09:54:23;56574.97;;;-146.93;48.17
21664;BME280;10993;52.510;13.456;2023-03-15T09:59:32;56552.69;;;-146.93;46.34
21664;BME280;10993;52.510;13.456;2023-03-15T10:04:34;56568.88;;;-146.93;43.56
21664;BME280;10993;52.510;13.456;2023-03-15T10:09:41;56615.47;;;-146.93;42.05
21664;BME280;10993;52.510;13.456;2023-03-15T10:14:56;56579.00;;;-146.93;39.87
21664;BME280;10993;52.510;13.456;2023-03-15T10:19:59;56609.38;;;-146.93;38.85
21664;BME280;10993;52.510;13.456;2023-03-15T10:25:11;56643.81;;;-146.93;38.50
21664;BME280;10993;52.510;13.456;2023-03-15T10:30:17;56611.41;;;-146.93;38.23
21664;BME280;10993;52.510;13.456;2023-03-15T10:35:18;56702.53;;;-146.93;36.88
21664;BME280;10993;52.510;13.456;2023-03-15T10:40:37;56933.34;;;-146.93;34.48
21664;BME280;10993;52.510;13.456;2023-03-15T10:45:39;57016.38;;;-146.93;30.71
21664;BME280;10993;52.510;13.456;2023-03-15T10:50:39;57160.16;;;-146.93;29.50
21664;BME280;10993;52.510;13.456;2023-03-15T10:55:42;56817.94;;;-146.93;31.65
21664;BME280;10993;52.510;13.456;2023-03-15T11:00:48;56645.81;;;-146.93;35.18
21664;BME280;10993;52.510;13.456;2023-03-15T11:05:51;56609.38;;;-146.93;37.55
21664;BME280;10993;52.510;13.456;2023-03-15T11:10:56;56613.44;;;-146.93;38.71
21664;BME280;10993;52.510;13.456;2023-03-15T11:16:01;56562.81;;;-146.93;39.78
21664;BME280;10993;52.510;13.456;2023-03-15T11:21:05;56637.72;;;-146.93;39.32
21664;BME280;10993;52.510;13.456;2023-03-15T11:26:14;56708.59;;;-146.93;35.10
21664;BME280;10993;52.510;13.456;2023-03-15T11:31:17;56747.06;;;-146.93;34.38
21664;BME280;10993;52.510;13.456;2023-03-15T11:36:21;56761.25;;;-146.93;32.80
21664;BME280;10993;52.510;13.456;2023-03-15T11:41:30;56734.91;;;-146.93;33.35
21664;BME280;10993;52.510;13.456;2023-03-15T11:46:39;56660.00;;;-146.93;33.92
21664;BME280;10993;52.510;13.456;2023-03-15T11:51:41;56680.25;;;-146.93;34.56
21664;BME280;10993;52.510;13.456;2023-03-15T11:56:51;56822.00;;;-146.93;31.56
21664;BME280;10993;52.510;13.456;2023-03-15T12:01:57;57050.81;;;-146.93;30.02
21664;BME280;10993;52.510;13.456;2023-03-15T12:06:59;56815.91;;;-146.93;31.15
21664;BME280;10993;52.510;13.456;2023-03-15T12:12:04;57407.22;;;-146.93;33.02
21664;BME280;10993;52.510;13.456;2023-03-15T12:17:38;56777.44;;;-146.93;29.64
21664;BME280;10993;52.510;13.456;2023-03-15T12:22:46;56763.28;;;-146.93;30.53
21664;BME280;10993;52.510;13.456;2023-03-15T12:27:50;56720.75;;;-146.93;31.92
21664;BME280;10993;52.510;13.456;2023-03-15T12:32:54;56722.78;;;-146.93;33.12
21664;BME280;10993;52.510;13.456;2023-03-15T12:37:57;56653.94;;;-146.93;33.35
21664;BME280;10993;52.510;13.456;2023-03-15T12:43:01;56625.59;;;-146.93;33.63
21664;BME280;10993;52.510;13.456;2023-03-15T12:48:20;56593.19;;;-146.93;34.41
21664;BME280;10993;52.510;13.456;2023-03-15T12:53:26;56572.94;;;-146.93;35.55
21664;BME280;10993;52.510;13.456;2023-03-15T12:58:31;56510.19;;;-146.93;36.05
21664;BME280;10993;52.510;13.456;2023-03-15T13:03:35;56577.00;;;-146.93;36.27
21664;BME280;10993;52.510;13.456;2023-03-15T13:08:40;56621.53;;;-146.93;34.72
21664;BME280;10993;52.510;13.456;2023-03-15T13:13:57;56546.63;;;-146.93;33.81
21664;BME280;10993;52.510;13.456;2023-03-15T13:19:11;56625.59;;;-146.93;34.45
21664;BME280;10993;52.510;13.456;2023-03-15T13:24:21;56546.63;;;-146.93;33.06
21664;BME280;10993;52.510;13.456;2023-03-15T13:29:26;56512.19;;;-146.93;31.48
21664;BME280;10993;52.510;13.456;2023-03-15T13:34:30;56587.13;;;-146.93;30.97
21664;BME280;10993;52.510;13.456;2023-03-15T13:39:33;56568.88;;;-146.93;30.89
21664;BME280;10993;52.510;13.456;2023-03-15T13:44:33;56599.25;;;-146.93;31.17
21664;BME280;10993;52.510;13.456;2023-03-15T13:49:35;56587.13;;;-146.93;30.80
21664;BME280;10993;52.510;13.456;2023-03-15T13:54:35;56587.13;;;-146.93;31.88
21664;BME280;10993;52.510;13.456;2023-03-15T13:59:39;56471.72;;;-146.93;42.22
21664;BME280;10993;52.510;13.456;2023-03-15T14:04:50;56544.59;;;-146.93;49.18
21664;BME280;10993;52.510;13.456;2023-03-15T14:10:06;56568.88;;;-146.93;49.37
21664;BME280;10993;52.510;13.456;2023-03-15T14:15:14;56625.59;;;-146.93;48.47
21664;BME280;10993;52.510;13.456;2023-03-15T14:20:17;56540.53;;;-146.93;48.98
21664;BME280;10993;52.510;13.456;2023-03-15T14:25:19;56538.53;;;-146.93;47.50
21664;BME280;10993;52.510;13.456;2023-03-15T14:30:21;56601.28;;;-146.93;45.59
21664;BME280;10993;52.510;13.456;2023-03-15T14:35:28;56510.19;;;-146.93;43.39
21664;BME280;10993;52.510;13.456;2023-03-15T14:40:31;56572.94;;;-146.93;40.29
21664;BME280;10993;52.510;13.456;2023-03-15T14:45:39;56457.53;;;-146.93;39.10
21664;BME280;10993;52.510;13.456;2023-03-15T14:50:43;56542.56;;;-146.93;38.16
21664;BME280;10993;52.510;13.456;2023-03-15T14:55:44;56524.34;;;-146.93;38.01
21664;BME280;10993;52.510;13.456;2023-03-15T15:00:47;56508.16;;;-146.93;36.43
21664;BME280;10993;52.510;13.456;2023-03-15T15:05:50;56548.66;;;-146.93;35.77
21664;BME280;10993;52.510;13.456;2023-03-15T15:10:52;56641.78;;;-146.93;35.80
21664;BME280;10993;52.510;13.456;2023-03-15T15:15:55;56471.72;;;-146.93;35.50
21664;BME280;10993;52.510;13.456;2023-03-15T15:20:59;56504.09;;;-146.93;35.56
21664;BME280;10993;52.510;13.456;2023-03-15T15:26:03;57265.47;;;-146.93;35.17
21664;BME280;10993;52.510;13.456;2023-03-15T15:31:05;56437.28;;;-146.93;35.02
21664;BME280;10993;52.510;13.456;2023-03-15T15:36:10;56556.75;;;-146.93;34.40
21664;BME280;10993;52.510;13.456;2023-03-15T15:41:13;56514.22;;;-146.93;35.00
21664;BME280;10993;52.510;13.456;2023-03-15T15:46:14;56528.41;;;-146.93;35.86
21664;BME280;10993;52.510;13.456;2023-03-15T15:51:26;56502.06;;;-146.93;36.45
21664;BME280;10993;52.510;13.456;2023-03-15T15:56:30;56524.34;;;-146.93;36.09
21664;BME280;10993;52.510;13.456;2023-03-15T16:01:31;56496.00;;;-146.93;37.12
21664;BME280;10993;52.510;13.456;2023-03-15T16:06:34;56526.38;;;-146.93;36.67
21664;BME280;10993;52.510;13.456;2023-03-15T16:11:35;56516.25;;;-146.93;36.50
21664;BME280;10993;52.510;13.456;2023-03-15T16:16:35;56593.19;;;-146.93;36.72
21664;BME280;10993;52.510;13.456;2023-03-15T16:21:38;56463.59;;;-146.93;49.01
21664;BME280;10993;52.510;13.456;2023-03-15T16:26:42;56489.94;;;-146.93;61.11
21664;BME280;10993;52.510;13.456;2023-03-15T16:31:43;56518.28;;;-146.93;66.73
21664;BME280;10993;52.510;13.456;2023-03-15T16:36:46;56534.47;;;-146.93;67.88
21664;BME280;10993;52.510;13.456;2023-03-15T16:41:47;56504.09;;;-146.93;65.82
21664;BME280;10993;52.510;13.456;2023-03-15T16:46:48;56524.34;;;-146.93;65.81
21664;BME280;10993;52.510;13.456;2023-03-15T16:51:51;56504.09;;;-146.93;66.49
21664;BME280;10993;52.510;13.456;2023-03-15T16:56:52;56544.59;;;-146.93;68.48
21664;BME280;10993;52.510;13.456;2023-03-15T17:01:53;56374.53;;;-146.93;70.40
21664;BME280;10993;52.510;13.456;2023-03-15T17:06:55;56548.66;;;-146.93;71.38
21664;BME280;10993;52.510;13.456;2023-03-15T17:11:56;56522.31;;;-146.93;71.38
21664;BME280;10993;52.510;13.456;2023-03-15T17:16:57;56544.59;;;-146.93;71.25
21664;BME280;10993;52.510;13.456;2023-03-15T17:21:58;56536.50;;;-146.93;70.68
21664;BME280;10993;52.510;13.456;2023-03-15T17:26:59;56562.81;;;-146.93;70.25
21664;BME280;10993;52.510;13.456;2023-03-15T17:31:59;56546.63;;;-146.93;70.13
21664;BME280;10993;52.510;13.456;2023-03-15T17:37:01;57214.84;;;-146.93;71.42
21664;BME280;10993;52.510;13.456;2023-03-15T17:42:01;56532.44;;;-146.93;71.60
21664;BME280;10993;52.510;13.456;2023-03-15T17:47:02;56552.69;;;-146.93;71.70
21664;BME280;10993;52.510;13.456;2023-03-15T17:52:10;56564.84;;;-146.93;71.40
21664;BME280;10993;52.510;13.456;2023-03-15T17:57:12;56587.13;;;-146.93;72.15
21664;BME280;10993;52.510;13.456;2023-03-15T18:02:13;56540.53;;;-146.93;70.87
21664;BME280;10993;52.510;13.456;2023-03-15T18:07:15;56566.88;;;-146.93;70.36
21664;BME280;10993;52.510;13.456;2023-03-15T18:12:16;56540.53;;;-146.93;70.40
21664;BME280;10993;52.510;13.456;2023-03-15T18:17:17;56595.22;;;-146.93;70.85
21664;BME280;10993;52.510;13.456;2023-03-15T18:22:19;56540.53;;;-146.93;71.02
21664;BME280;10993;52.510;13.456;2023-03-15T18:27:20;56520.28;;;-146.93;70.25
21664;BME280;10993;52.510;13.456;2023-03-15T18:32:20;56542.56;;;-146.93;70.52
21664;BME280;10993;52.510;13.456;2023-03-15T18:37:22;56554.72;;;-146.93;69.71
21664;BME280;10993;52.510;13.456;2023-03-15T18:42:22;56577.00;;;-146.93;68.84
21664;BME280;10993;52.510;13.456;2023-03-15T18:47:23;56558.75;;;-146.93;68.90
21664;BME280;10993;52.510;13.456;2023-03-15T18:52:24;56552.69;;;-146.93;68.60
21664;BME280;10993;52.510;13.456;2023-03-15T18:57:25;56528.41;;;-146.93;68.99
21664;BME280;10993;52.510;13.456;2023-03-15T19:02:25;56591.16;;;-146.93;69.00
21664;BME280;10993;52.510;13.456;2023-03-15T19:07:27;56496.00;;;-146.93;68.79
21664;BME280;10993;52.510;13.456;2023-03-15T19:12:27;56570.91;;;-146.93;68.13
21664;BME280;10993;52.510;13.456;2023-03-15T19:17:27;56544.59;;;-146.93;69.08
21664;BME280;10993;52.510;13.456;2023-03-15T19:22:29;56574.97;;;-146.93;69.42
21664;BME280;10993;52.510;13.456;2023-03-15T19:27:31;56587.13;;;-146.93;69.41
21664;BME280;10993;52.510;13.456;2023-03-15T19:32:31;56572.94;;;-146.93;69.18
21664;BME280;10993;52.510;13.456;2023-03-15T19:37:33;57397.09;;;-146.93;69.96
21664;BME280;10993;52.510;13.456;2023-03-15T19:42:33;56581.03;;;-146.93;70.15
21664;BME280;10993;52.510;13.456;2023-03-15T19:47:34;56643.81;;;-146.93;70.20
21664;BME280;10993;52.510;13.456;2023-03-15T19:52:35;56570.91;;;-146.93;70.80
21664;BME280;10993;52.510;13.456;2023-03-15T19:57:39;56558.75;;;-146.93;70.94
21664;BME280;10993;52.510;13.456;2023-03-15T20:02:39;56427.16;;;-146.93;71.54
21664;BME280;10993;52.510;13.456;2023-03-15T20:07:42;56572.94;;;-146.93;71.22
21664;BME280;10993;52.510;13.456;2023-03-15T20:12:43;56585.09;;;-146.93;72.16
21664;BME280;10993;52.510;13.456;2023-03-15T20:17:44;56589.13;;;-146.93;72.50
21664;BME280;10993;52.510;13.456;2023-03-15T20:22:46;56589.13;;;-146.93;71.94
21664;BME280;10993;52.510;13.456;2023-03-15T20:27:47;56455.50;;;-146.93;72.29
21664;BME280;10993;52.510;13.456;2023-03-15T20:32:47;56568.88;;;-146.93;72.39
21664;BME280;10993;52.510;13.456;2023-03-15T20:37:49;56577.00;;;-146.93;72.91
21664;BME280;10993;52.510;13.456;2023-03-15T20:42:52;56530.41;;;-146.93;72.31
21664;BME280;10993;52.510;13.456;2023-03-15T20:47:52;56585.09;;;-146.93;71.79
21664;BME280;10993;52.510;13.456;2023-03-15T20:52:54;56560.78;;;-146.93;72.18
21664;BME280;10993;52.510;13.456;2023-03-15T20:57:55;56566.88;;;-146.93;72.47
21664;BME280;10993;52.510;13.456;2023-03-15T21:02:55;56378.56;;;-146.93;72.47
21664;BME280;10993;52.510;13.456;2023-03-15T21:07:57;56568.88;;;-146.93;72.07
21664;BME280;10993;52.510;13.456;2023-03-15T21:12:57;56556.75;;;-146.93;72.80
21664;BME280;10993;52.510;13.456;2023-03-15T21:17:57;56577.00;;;-146.93;73.18
21664;BME280;10993;52.510;13.456;2023-03-15T21:22:59;56562.81;;;-146.93;72.17
21664;BME280;10993;52.510;13.456;2023-03-15T21:28:00;56585.09;;;-146.93;72.63
21664;BME280;10993;52.510;13.456;2023-03-15T21:33:01;56560.78;;;-146.93;72.25
21664;BME280;10993;52.510;13.456;2023-03-15T21:38:03;56538.53;;;-146.93;71.86
21664;BME280;10993;52.510;13.456;2023-03-15T21:43:03;56593.19;;;-146.93;72.04
21664;BME280;10993;52.510;13.456;2023-03-15T21:48:04;56562.81;;;-146.93;71.58
21664;BME280;10993;52.510;13.456;2023-03-15T21:53:05;56487.91;;;-146.93;71.85
21664;BME280;10993;52.510;13.456;2023-03-15T21:58:06;56645.81;;;-146.93;71.79
21664;BME280;10993;52.510;13.456;2023-03-15T22:03:06;56512.19;;;-146.93;71.48
21664;BME280;10993;52.510;13.456;2023-03-15T22:08:08;56581.03;;;-146.93;70.81
21664;BME280;10993;52.510;13.456;2023-03-15T22:13:08;56609.38;;;-146.93;71.39
21664;BME280;10993;52.510;13.456;2023-03-15T22:18:08;56530.41;;;-146.93;72.40
21664;BME280;10993;52.510;13.456;2023-03-15T22:23:12;56589.13;;;-146.93;72.43
21664;BME280;10993;52.510;13.456;2023-03-15T22:28:13;56593.19;;;-146.93;72.15
21664;BME280;10993;52.510;13.456;2023-03-15T22:33:13;56577.00;;;-146.93;73.15
21664;BME280;10993;52.510;13.456;2023-03-15T22:38:15;56589.13;;;-146.93;73.09
21664;BME280;10993;52.510;13.456;2023-03-15T22:43:16;56593.19;;;-146.93;72.99
21664;BME280;10993;52.510;13.456;2023-03-15T22:48:17;56595.22;;;-146.93;73.18
21664;BME280;10993;52.510;13.456;2023-03-15T22:53:19;56572.94;;;-146.93;72.91
21664;BME280;10993;52.510;13.456;2023-03-15T22:58:19;57133.81;;;-146.93;72.96
21664;BME280;10993;52.510;13.456;2023-03-15T23:03:20;56585.09;;;-146.93;73.37
21664;BME280;10993;52.510;13.456;2023-03-15T23:08:22;56577.00;;;-146.93;73.72
21664;BME280;10993;52.510;13.456;2023-03-15T23:13:23;56621.53;;;-146.93;73.83
21664;BME280;10993;52.510;13.456;2023-03-15T23:18:23;56536.50;;;-146.93;74.31
21664;BME280;10993;52.510;13.456;2023-03-15T23:23:25;56581.03;;;-146.93;74.03
21664;BME280;10993;52.510;13.456;2023-03-15T23:28:26;56605.34;;;-146.93;74.80
21664;BME280;10993;52.510;13.456;2023-03-15T23:33:27;56605.34;;;-146.93;74.73
21664;BME280;10993;52.510;13.456;2023-03-15T23:38:29;56625.59;;;-146.93;74.72
21664;BME280;10993;52.510;13.456;2023-03-15T23:43:33;56611.41;;;-146.93;74.66
21664;BME280;10993;52.510;13.456;2023-03-15T23:48:33;56564.84;;;-146.93;74.96
21664;BME280;10993;52.510;13.456;2023-03-15T23:53:37;56593.19;;;-146.93;75.07
21664;BME280;10993;52.510;13.456;2023-03-15T23:58:37;56595.22;;;-146.93;75.25
